Hauptseite
METAR-TAF:

METAR-TAF

Flughäfen :

Benbecula Airport

Benbecula, Schottland

Breite: 57-28N, Länge: 007-22W, Höhe: 6 m

Beobachtung

Neuester Wetterbericht von vor 18 Minuten, um 13:20 UTC
Wind 13 kt aus Ost/Nordost
Temperatur 13°C
Luftfeuchtigkeit 67%
Luftdruck 1025 hPa
Sichtweite 10 km oder mehr
Leicht bewölkt in der Höhe von 1900 ft

METAR: EGPL 221320Z 07013KT 9999 FEW019 13/07 Q1025

Zeit: 14:38 (13:38 UTC)

Prognose

Neuester Wetterbericht von vor 2 Stunden und 34 Minuten, um 11:04 UTC
Gültige Prognose vom 22 um 12 UTC bis 22 um 17 UTC
Wind 14 kt aus Ost/Nordost
Sichtweite 10 km oder mehr
Leicht bewölkt in der Höhe von 3500 ft

TAF: EGPL 221104Z 2212/2217 07014KT 9999 FEW035

Wetterbeobachtungen und Prognosen von mehr als 4000 Flughäfen (METAR und TAF Bericht).

Die verfügbaren Stationen werden durch gelbe und rote Markierungen auf der Karte dargestellt.

Führen Sie die Maus auf sie, um den Namen der Station zu sehen.

Darauf klicken, um die Beobachtung von Wetterbeobachtungen und Prognosen zu sehen.

Um die Karte zu ändern : klicken Sie auf den grünen Tasten mit einem schwarzen Kreuz Zum Vergrößern, auf den grünen Button mit einem Gedankenstrich zu verkleinern, oder auf die grünen Pfeile für benachbarte Karten.


METAR-TAF: